Time;durP1;ratioP1;P1;durP2;ratioP2;P2;SDS_P1;SDS_P2;PMS_P1;PMS_P2;Temp;Humidity;BMP_temperature;BMP_pressure;BME280_temperature;BME280_humidity;BME280_pressure;Samples;Min_cycle;Max_cycle;Signal;HPM_P1;HPM_P2
2022/10/21 00:01:07;;;;;;;12.63;11.43;;;;;;;6.54;89.73;93652.97;5071881;28;20189;-67
2022/10/21 00:03:33;;;;;;;12.77;11.57;;;;;;;6.65;89.44;93651.34;5071324;28;20217;-69
2022/10/21 00:05:58;;;;;;;13.10;12.10;;;;;;;6.64;89.07;93649.78;5072216;28;20225;-68
2022/10/21 00:08:24;;;;;;;12.83;11.83;;;;;;;6.49;89.20;93634.69;5071511;28;20252;-70
2022/10/21 00:10:56;;;;;;;13.40;12.37;;;;;;;6.38;89.93;93638.13;5071043;28;20342;-69
2022/10/21 00:13:22;;;;;;;13.93;12.73;;;;;;;6.48;89.86;93640.91;5069205;28;20225;-68
2022/10/21 00:16:12;;;;;;;12.97;11.87;;;;;;;6.36;90.10;93633.16;5072042;28;20213;-69
2022/10/21 00:18:39;;;;;;;14.23;12.97;;;;;;;6.29;90.98;93636.88;5071459;28;20248;-69
2022/10/21 00:21:10;;;;;;;13.50;12.47;;;;;;;6.19;90.99;93628.88;5072282;28;20678;-67
2022/10/21 00:23:36;;;;;;;12.53;11.63;;;;;;;6.42;90.60;93639.22;5071156;28;20723;-68
2022/10/21 00:26:02;;;;;;;13.07;12.07;;;;;;;6.34;90.74;93637.78;5070281;28;20272;-67
2022/10/21 00:28:28;;;;;;;13.70;12.70;;;;;;;6.31;90.89;93635.63;5069890;28;20229;-68
2022/10/21 00:30:54;;;;;;;12.63;11.70;;;;;;;6.30;90.50;93631.44;5071565;28;20221;-68
2022/10/21 00:33:20;;;;;;;13.17;12.07;;;;;;;6.28;90.75;93636.09;5071008;28;20221;-68
2022/10/21 00:35:57;;;;;;;12.97;11.97;;;;;;;6.33;90.20;93632.81;5070971;28;20221;-68
2022/10/21 00:38:23;;;;;;;12.43;11.47;;;;;;;6.45;89.23;93633.59;5070844;28;20225;-67
2022/10/21 00:40:49;;;;;;;13.97;12.90;;;;;;;6.57;88.63;93623.97;5071332;28;20195;-68
2022/10/21 00:43:15;;;;;;;10.57;9.87;;;;;;;6.58;88.37;93620.38;5071095;28;20288;-67
2022/10/21 00:45:42;;;;;;;11.37;10.47;;;;;;;6.46;88.18;93624.78;5071625;28;20845;-68
2022/10/21 00:48:28;;;;;;;12.57;11.60;;;;;;;6.54;88.23;93621.84;5070178;28;20221;-68
2022/10/21 00:50:57;;;;;;;12.17;11.27;;;;;;;6.63;87.79;93617.84;5071795;28;20240;-67
2022/10/21 00:53:24;;;;;;;12.37;11.57;;;;;;;6.46;87.85;93609.22;5070562;28;20285;-67
2022/10/21 00:55:54;;;;;;;12.23;11.37;;;;;;;6.37;88.25;93605.41;5071119;28;20213;-67
2022/10/21 00:58:22;;;;;;;12.70;11.63;;;;;;;6.21;89.31;93608.72;5070511;28;20227;-67
2022/10/21 01:00:50;;;;;;;12.10;11.33;;;;;;;6.42;88.51;93606.31;5070687;28;20197;-67
2022/10/21 01:03:15;;;;;;;11.07;10.37;;;;;;;6.26;89.04;93606.19;5070657;28;20240;-68
2022/10/21 01:05:42;;;;;;;13.03;12.10;;;;;;;6.26;89.40;93612.19;5071383;28;20190;-68
2022/10/21 01:08:07;;;;;;;10.60;9.90;;;;;;;6.15;88.51;93604.41;5070584;28;20259;-68
2022/10/21 01:10:33;;;;;;;10.97;10.27;;;;;;;6.28;87.70;93614.56;5071024;28;20221;-67
2022/10/21 01:13:15;;;;;;;11.43;10.73;;;;;;;6.15;87.83;93615.56;5071403;28;20229;-68
2022/10/21 01:16:13;;;;;;;11.83;11.07;;;;;;;6.12;88.42;93610.06;5070146;28;20220;-68
2022/10/21 01:19:06;;;;;;;12.00;11.13;;;;;;;5.97;88.56;93613.13;5069031;28;20233;-67
2022/10/21 01:21:40;;;;;;;11.30;10.50;;;;;;;6.00;87.97;93606.69;5069659;28;20185;-67
2022/10/21 01:24:08;;;;;;;11.27;10.47;;;;;;;5.90;88.54;93617.59;5068295;28;20335;-68
2022/10/21 01:27:00;;;;;;;12.20;11.20;;;;;;;5.80;88.53;93612.19;5069250;28;20212;-67
2022/10/21 01:29:41;;;;;;;13.03;12.03;;;;;;;5.80;89.66;93612.19;5069141;28;20221;-68
2022/10/21 01:32:42;;;;;;;11.50;10.80;;;;;;;5.77;89.42;93615.22;5071226;28;20193;-67
2022/10/21 01:35:47;;;;;;;12.27;11.47;;;;;;;5.80;89.47;93622.53;5047426;28;20227;-68
2022/10/21 01:38:22;;;;;;;12.70;11.83;;;;;;;5.68;89.67;93623.53;5049367;28;20277;-67
2022/10/21 01:41:06;;;;;;;11.87;11.10;;;;;;;5.71;89.55;93618.69;5050186;28;20198;-67
2022/10/21 01:43:38;;;;;;;11.50;10.70;;;;;;;5.52;89.55;93621.59;5057236;28;20253;-68
2022/10/21 01:46:11;;;;;;;10.87;10.27;;;;;;;5.50;90.79;93623.63;5095478;28;20197;-68
2022/10/21 01:48:42;;;;;;;11.27;10.47;;;;;;;5.63;90.46;93626.00;5069650;28;20222;-67
2022/10/21 01:51:09;;;;;;;12.07;11.27;;;;;;;5.40;92.12;93625.97;5070288;28;20209;-67
2022/10/21 01:53:41;;;;;;;11.83;11.03;;;;;;;5.42;92.31;93636.88;5070144;28;20222;-67
2022/10/21 01:56:08;;;;;;;11.93;11.13;;;;;;;5.56;91.13;93615.75;5069837;28;20244;-67
2022/10/21 01:58:36;;;;;;;11.87;10.83;;;;;;;5.49;90.88;93635.00;5068932;28;20232;-67
2022/10/21 02:01:06;;;;;;;11.83;10.97;;;;;;;5.47;91.79;93631.81;5069070;28;20225;-67
2022/10/21 02:03:37;;;;;;;12.43;11.53;;;;;;;5.48;91.32;93636.03;5069225;28;20239;-68
2022/10/21 02:06:03;;;;;;;11.33;10.47;;;;;;;5.41;91.50;93633.53;5069084;28;20316;-67
2022/10/21 02:08:29;;;;;;;11.33;10.37;;;;;;;5.32;92.07;93631.47;5069074;28;20284;-67
2022/10/21 02:10:57;;;;;;;12.33;11.33;;;;;;;5.31;92.37;93624.72;5069750;28;20225;-67
2022/10/21 02:13:26;;;;;;;12.57;11.70;;;;;;;5.27;92.84;93633.91;5068655;28;20251;-67
2022/10/21 02:15:55;;;;;;;11.60;10.70;;;;;;;5.18;93.19;93627.47;5069939;28;20223;-67
2022/10/21 02:18:23;;;;;;;12.20;11.30;;;;;;;5.45;91.68;93629.47;5068842;28;20221;-67
2022/10/21 02:21:12;;;;;;;12.63;11.83;;;;;;;5.52;91.78;93621.59;5069688;28;20181;-67
2022/10/21 02:24:03;;;;;;;12.07;11.20;;;;;;;5.32;91.89;93634.06;5068859;28;20233;-67
2022/10/21 02:26:29;;;;;;;11.93;11.03;;;;;;;5.33;92.42;93636.41;5069581;28;20193;-67
2022/10/21 02:28:56;;;;;;;11.13;10.23;;;;;;;5.23;91.69;93615.44;5069192;28;20275;-67
2022/10/21 02:31:31;;;;;;;12.90;11.73;;;;;;;5.25;92.52;93635.94;5069509;28;20200;-67
2022/10/21 02:34:30;;;;;;;12.73;11.83;;;;;;;5.19;92.70;93629.06;5068068;28;20358;-67
2022/10/21 02:37:24;;;;;;;11.97;11.10;;;;;;;5.23;92.97;93633.56;5068507;28;20298;-68
2022/10/21 02:39:54;;;;;;;12.77;11.77;;;;;;;5.22;92.96;93633.78;5068805;28;20217;-67
2022/10/21 02:42:26;;;;;;;13.07;11.97;;;;;;;5.18;92.63;93625.69;5069700;28;20197;-67
2022/10/21 02:44:52;;;;;;;12.77;11.97;;;;;;;5.11;92.87;93627.56;5069032;28;20221;-68
2022/10/21 02:47:17;;;;;;;13.27;12.27;;;;;;;5.11;93.32;93626.78;5068978;28;20227;-67
2022/10/21 02:49:43;;;;;;;12.13;11.27;;;;;;;5.18;92.73;93632.66;5068756;28;20229;-67
2022/10/21 02:52:09;;;;;;;12.50;11.70;;;;;;;5.04;93.43;93634.66;5068549;28;20193;-67
2022/10/21 02:54:34;;;;;;;12.57;11.57;;;;;;;5.13;93.11;93635.13;5067109;28;20885;-68
2022/10/21 02:57:00;;;;;;;11.90;10.73;;;;;;;5.13;91.88;93627.34;5069089;28;20190;-68
2022/10/21 02:59:25;;;;;;;12.10;10.87;;;;;;;4.98;93.05;93636.28;5068431;28;20237;-67
2022/10/21 03:01:51;;;;;;;12.03;11.13;;;;;;;5.03;93.43;93640.03;5069012;28;20185;-67
2022/10/21 03:04:16;;;;;;;12.27;11.47;;;;;;;4.98;92.82;93646.66;5067230;28;20233;-67
2022/10/21 03:06:41;;;;;;;12.40;11.50;;;;;;;4.86;93.59;93645.81;5069000;28;20223;-67
2022/10/21 03:09:07;;;;;;;12.47;11.57;;;;;;;4.71;93.94;93629.09;5067859;28;20272;-68
2022/10/21 03:11:32;;;;;;;13.17;12.07;;;;;;;4.96;94.12;93640.88;5067946;28;20224;-68
2022/10/21 03:13:57;;;;;;;12.97;11.77;;;;;;;4.97;93.15;93647.66;5068775;28;20241;-67
2022/10/21 03:16:23;;;;;;;13.23;12.20;;;;;;;4.88;93.76;93643.00;5068996;28;20281;-67
2022/10/21 03:18:48;;;;;;;12.80;11.83;;;;;;;4.79;93.71;93634.75;5068480;28;20217;-67
2022/10/21 03:21:14;;;;;;;12.83;11.93;;;;;;;4.78;94.07;93647.91;5069329;28;20189;-67
2022/10/21 03:23:39;;;;;;;12.43;11.20;;;;;;;4.77;94.80;93649.72;5068413;28;20489;-67
2022/10/21 03:26:04;;;;;;;12.87;11.77;;;;;;;4.77;94.50;93652.31;5069389;28;20208;-67
2022/10/21 03:28:30;;;;;;;13.30;12.00;;;;;;;4.90;94.48;93651.34;5068325;28;20213;-67
2022/10/21 03:30:55;;;;;;;12.07;11.17;;;;;;;5.00;93.19;93645.66;5067632;28;20220;-67
2022/10/21 03:33:20;;;;;;;13.10;12.13;;;;;;;4.88;93.47;93658.53;5067569;28;20217;-67
2022/10/21 03:35:46;;;;;;;11.40;10.60;;;;;;;4.82;93.03;93644.66;5069193;28;20233;-67
2022/10/21 03:38:11;;;;;;;12.10;11.20;;;;;;;4.75;93.28;93633.63;5068559;28;20280;-67
2022/10/21 03:40:36;;;;;;;13.10;12.20;;;;;;;4.82;94.23;93651.66;5068860;28;20196;-67
2022/10/21 03:43:02;;;;;;;12.90;11.97;;;;;;;4.88;94.26;93648.19;5067719;28;20217;-67
2022/10/21 03:45:27;;;;;;;13.63;12.50;;;;;;;4.82;94.36;93651.66;5068340;28;20178;-70
2022/10/21 03:47:54;;;;;;;12.47;11.30;;;;;;;4.87;94.35;93656.97;5066594;28;20193;-67
2022/10/21 03:50:20;;;;;;;12.20;11.20;;;;;;;4.73;94.42;93651.13;5066978;28;20216;-67
2022/10/21 03:52:45;;;;;;;12.83;11.90;;;;;;;4.60;94.50;93609.94;5069569;28;20194;-68
2022/10/21 03:55:11;;;;;;;13.50;12.40;;;;;;;4.67;93.89;93648.63;5070994;28;20217;-68
2022/10/21 03:57:36;;;;;;;13.20;12.30;;;;;;;4.73;94.50;93652.97;5071531;28;20181;-68
2022/10/21 04:00:03;;;;;;;13.07;12.23;;;;;;;4.68;94.40;93658.78;5069499;28;20213;-67
2022/10/21 04:02:28;;;;;;;13.67;12.37;;;;;;;4.63;94.14;93653.47;5070843;28;20979;-68
2022/10/21 04:04:53;;;;;;;12.97;11.87;;;;;;;4.73;93.88;93656.31;5070093;28;20225;-67
2022/10/21 04:07:19;;;;;;;13.13;12.03;;;;;;;4.68;93.57;93657.97;5071100;28;20796;-66
2022/10/21 04:09:44;;;;;;;16.70;11.97;;;;;;;4.75;93.05;93643.97;5070965;28;20251;-67
2022/10/21 04:12:09;;;;;;;13.97;12.80;;;;;;;4.57;94.29;93661.28;5071478;28;20173;-67
2022/10/21 04:14:35;;;;;;;12.77;11.83;;;;;;;4.62;93.96;93657.03;5070746;28;20271;-68
2022/10/21 04:17:00;;;;;;;13.63;12.53;;;;;;;4.49;95.08;93659.78;5070687;28;20189;-66
2022/10/21 04:19:26;;;;;;;14.07;13.07;;;;;;;4.44;94.72;93641.53;5069022;28;20220;-67
2022/10/21 04:21:51;;;;;;;12.43;11.20;;;;;;;4.44;94.53;93635.56;5071300;28;20219;-66
2022/10/21 04:24:16;;;;;;;14.47;13.30;;;;;;;4.53;94.09;93655.75;5070552;28;20221;-68
2022/10/21 04:26:42;;;;;;;12.87;11.87;;;;;;;4.53;94.65;93645.41;5071063;28;20185;-67
2022/10/21 04:29:07;;;;;;;12.47;11.47;;;;;;;4.50;94.42;93648.44;5070474;28;20233;-67
2022/10/21 04:31:33;;;;;;;12.73;11.60;;;;;;;4.46;95.76;93646.50;5071037;28;20169;-67
2022/10/21 04:33:58;;;;;;;13.80;12.53;;;;;;;4.61;94.38;93642.53;5069811;28;20220;-68
2022/10/21 04:36:24;;;;;;;13.43;12.43;;;;;;;4.58;94.63;93645.56;5069015;28;20205;-69
2022/10/21 04:38:49;;;;;;;14.43;13.33;;;;;;;4.46;94.80;93636.16;5070491;28;20245;-68
2022/10/21 04:41:15;;;;;;;14.50;13.30;;;;;;;4.18;95.62;93610.81;5070561;28;20201;-69
2022/10/21 04:43:40;;;;;;;14.80;13.70;;;;;;;4.66;95.90;93645.28;5068385;28;20221;-67
2022/10/21 04:46:12;;;;;;;14.20;13.20;;;;;;;4.58;94.07;93645.56;5069261;28;21075;-68
2022/10/21 04:48:38;;;;;;;13.50;12.33;;;;;;;4.46;94.07;93638.75;5060973;28;20222;-68
2022/10/21 04:51:04;;;;;;;13.73;12.57;;;;;;;4.33;95.40;93649.22;5048560;28;20262;-67
2022/10/21 04:53:29;;;;;;;14.73;13.40;;;;;;;4.50;95.50;93656.19;5045806;28;20233;-69
2022/10/21 04:55:55;;;;;;;14.53;13.27;;;;;;;4.50;94.85;93645.84;5043050;28;20412;-67
2022/10/21 04:58:21;;;;;;;13.30;12.10;;;;;;;4.42;94.99;93643.53;5043169;28;20237;-68
2022/10/21 05:00:46;;;;;;;15.50;13.23;;;;;;;4.40;95.29;93649.94;5049181;28;20202;-68
2022/10/21 05:03:11;;;;;;;12.70;11.77;;;;;;;4.47;94.98;93658.41;5052208;28;20263;-67
2022/10/21 05:05:37;;;;;;;13.43;12.50;;;;;;;4.44;94.58;93654.47;5068554;28;20208;-67
2022/10/21 05:08:02;;;;;;;13.87;12.57;;;;;;;4.27;95.05;93640.53;5068967;28;20232;-67
2022/10/21 05:10:29;;;;;;;13.53;12.43;;;;;;;4.48;97.96;93658.19;5068913;28;20229;-70
2022/10/21 05:12:56;;;;;;;20.13;12.80;;;;;;;4.53;96.17;93642.81;5069336;28;20215;-68
2022/10/21 05:15:21;;;;;;;16.53;15.23;;;;;;;4.74;96.46;93651.94;5070246;28;20300;-68
2022/10/21 05:17:47;;;;;;;14.27;13.07;;;;;;;4.78;94.17;93664.22;5069844;28;20194;-69
2022/10/21 05:20:12;;;;;;;17.17;13.73;;;;;;;4.60;94.89;93640.97;5069498;28;20194;-68
2022/10/21 05:22:37;;;;;;;15.30;13.97;;;;;;;4.84;95.25;93673.69;5069528;28;20217;-71
2022/10/21 05:25:03;;;;;;;14.67;13.33;;;;;;;4.88;94.94;93659.34;5048692;28;20225;-69
2022/10/21 05:27:29;;;;;;;15.57;14.20;;;;;;;4.81;94.31;93657.81;5048311;28;20194;-68
2022/10/21 05:29:54;;;;;;;29.40;26.77;;;;;;;5.07;94.04;93665.25;5047276;28;20253;-68
2022/10/21 05:32:19;;;;;;;16.40;12.97;;;;;;;5.11;94.23;93670.75;5056375;28;20205;-68
2022/10/21 05:34:45;;;;;;;13.47;12.33;;;;;;;5.24;93.83;93663.63;5049187;28;20260;-69
2022/10/21 05:37:10;;;;;;;13.10;11.90;;;;;;;5.12;93.31;93670.53;5049191;28;20201;-69
2022/10/21 05:39:35;;;;;;;14.27;13.07;;;;;;;5.11;93.93;93665.59;5049625;28;20232;-70
2022/10/21 05:42:01;;;;;;;18.10;14.30;;;;;;;5.12;95.14;93669.78;5050148;28;20174;-68
2022/10/21 05:44:26;;;;;;;17.17;15.47;;;;;;;5.37;94.09;93667.84;5048926;28;20222;-68
2022/10/21 05:46:52;;;;;;;15.73;14.33;;;;;;;5.33;94.25;93670.06;5049202;28;20216;-68
2022/10/21 05:49:17;;;;;;;18.10;16.30;;;;;;;5.38;94.29;93682.34;5046974;28;20255;-71
2022/10/21 05:51:44;;;;;;;17.03;15.47;;;;;;;5.44;94.60;93684.06;5049681;28;20227;-67
2022/10/21 05:54:09;;;;;;;17.80;16.13;;;;;;;5.58;94.27;93685.44;5062830;28;20228;-67
2022/10/21 05:56:34;;;;;;;18.23;16.30;;;;;;;5.56;94.32;93682.28;5069320;28;20213;-68
2022/10/21 05:59:00;;;;;;;21.53;17.87;;;;;;;5.63;94.16;93683.00;5069219;28;20240;-68
2022/10/21 06:01:26;;;;;;;20.47;17.43;;;;;;;5.75;94.00;93688.97;5070240;28;20190;-68
2022/10/21 06:03:52;;;;;;;20.87;18.63;;;;;;;5.98;93.04;93696.81;5069552;28;20236;-68
2022/10/21 06:06:17;;;;;;;31.20;19.07;;;;;;;5.94;93.17;93706.06;5069035;28;20189;-68
2022/10/21 06:08:42;;;;;;;25.67;18.53;;;;;;;5.82;94.62;93713.03;5070717;28;20236;-68
2022/10/21 06:11:11;;;;;;;22.47;19.30;;;;;;;6.04;93.44;93709.69;5067112;28;20213;-68
2022/10/21 06:13:37;;;;;;;23.07;19.87;;;;;;;6.10;93.25;93715.78;5066034;28;20232;-71
2022/10/21 06:16:04;;;;;;;23.17;18.20;;;;;;;6.07;93.42;93693.69;5066762;28;20227;-69
2022/10/21 06:18:29;;;;;;;25.47;21.73;;;;;;;6.16;93.43;93720.06;5066456;28;20225;-69
2022/10/21 06:20:54;;;;;;;24.00;18.97;;;;;;;6.25;94.05;93721.31;5065439;28;20189;-68
2022/10/21 06:23:20;;;;;;;21.90;19.23;;;;;;;6.28;93.73;93718.28;5068298;28;20213;-67
2022/10/21 06:25:58;;;;;;;21.50;18.40;;;;;;;6.42;93.88;93724.81;5067593;28;20208;-67
2022/10/21 06:28:24;;;;;;;22.23;19.00;;;;;;;6.67;92.49;93733.16;5067144;28;20244;-68
2022/10/21 06:30:50;;;;;;;24.60;18.30;;;;;;;6.75;92.23;93726.81;5067784;28;20181;-68
2022/10/21 06:33:15;;;;;;;22.00;18.67;;;;;;;6.76;92.56;93725.81;5067237;28;20248;-67
2022/10/21 06:35:41;;;;;;;20.43;18.33;;;;;;;6.48;91.48;93674.63;5067889;28;20213;-69
2022/10/21 06:38:06;;;;;;;24.47;18.97;;;;;;;6.96;91.46;93724.41;5068055;28;20240;-69
2022/10/21 06:40:31;;;;;;;21.30;17.63;;;;;;;7.18;90.07;93734.97;5067508;28;20197;-70
2022/10/21 06:42:57;;;;;;;23.63;18.13;;;;;;;6.89;91.42;93741.16;5067751;28;20243;-68
2022/10/21 06:45:22;;;;;;;21.37;18.77;;;;;;;6.97;91.76;93728.63;5066926;28;20185;-67
2022/10/21 06:47:47;;;;;;;21.93;18.50;;;;;;;7.04;91.34;93728.47;5067643;28;20205;-68
2022/10/21 06:50:13;;;;;;;22.33;17.80;;;;;;;7.49;89.18;93745.72;5068061;28;20205;-68
2022/10/21 06:52:39;;;;;;;21.37;19.00;;;;;;;7.54;88.43;93735.44;5067368;28;20189;-70
2022/10/21 06:55:06;;;;;;;19.33;17.23;;;;;;;7.54;88.59;93750.22;5068201;28;20209;-71
2022/10/21 06:57:31;;;;;;;20.33;18.27;;;;;;;7.40;89.38;93754.13;5066768;28;20260;-69
2022/10/21 06:59:57;;;;;;;28.77;19.53;;;;;;;7.47;89.99;93759.97;5067889;28;20247;-68
2022/10/21 07:02:25;;;;;;;25.80;19.27;;;;;;;7.56;90.06;93754.19;5067340;28;20181;-70
2022/10/21 07:04:52;;;;;;;27.33;18.70;;;;;;;7.67;88.74;93735.13;5067168;28;20248;-69
2022/10/21 07:07:18;;;;;;;26.93;21.00;;;;;;;7.74;88.64;93738.41;5067068;28;20188;-69
2022/10/21 07:09:44;;;;;;;24.00;20.20;;;;;;;7.79;89.13;93748.91;5048639;28;20234;-71
2022/10/21 07:12:09;;;;;;;23.17;20.10;;;;;;;8.07;88.87;93748.06;5047408;28;20185;-70
2022/10/21 07:14:35;;;;;;;23.87;20.43;;;;;;;8.15;88.22;93756.25;5047342;28;20419;-70
2022/10/21 07:17:00;;;;;;;29.93;20.97;;;;;;;8.01;89.57;93746.41;5047975;28;20198;-70
2022/10/21 07:19:26;;;;;;;24.73;20.20;;;;;;;8.12;89.26;93748.16;5047262;28;20288;-69
2022/10/21 07:21:51;;;;;;;44.27;23.33;;;;;;;8.12;89.85;93729.94;5047039;28;20975;-68
2022/10/21 07:24:16;;;;;;;33.77;21.90;;;;;;;8.09;90.03;93746.03;5047835;28;20230;-69
2022/10/21 07:26:42;;;;;;;26.83;20.90;;;;;;;8.07;91.04;93755.88;5048593;28;20197;-69
2022/10/21 07:29:07;;;;;;;33.27;18.60;;;;;;;8.35;89.92;93752.44;5064262;28;20253;-70
2022/10/21 07:31:36;;;;;;;24.10;19.40;;;;;;;8.34;91.41;93750.88;5071680;28;20245;-68
2022/10/21 07:34:04;;;;;;;30.13;21.47;;;;;;;8.71;89.05;93751.94;5059747;28;20226;-67
2022/10/21 07:36:34;;;;;;;34.03;21.70;;;;;;;8.96;86.79;93754.91;5049973;28;20236;-70
2022/10/21 07:39:03;;;;;;;24.47;20.20;;;;;;;8.54;88.78;93753.78;5047250;28;20246;-68
2022/10/21 07:41:41;;;;;;;28.47;19.50;;;;;;;8.75;89.23;93748.63;5041912;28;20186;-68
2022/10/21 07:44:08;;;;;;;32.43;19.97;;;;;;;8.86;87.48;93723.50;5058112;28;20288;-68
2022/10/21 07:46:35;;;;;;;23.90;20.40;;;;;;;9.12;86.76;93748.88;5070048;28;20288;-70
2022/10/21 07:49:02;;;;;;;28.23;20.43;;;;;;;9.08;87.42;93747.78;5070114;28;20221;-67
2022/10/21 07:51:27;;;;;;;40.43;24.53;;;;;;;9.23;85.94;93714.09;5071304;28;20189;-69
2022/10/21 07:53:55;;;;;;;36.90;22.00;;;;;;;9.62;84.06;93739.81;5070427;28;20674;-67
2022/10/21 07:56:27;;;;;;;37.00;21.17;;;;;;;9.39;84.39;93740.09;5096477;28;20213;-68
2022/10/21 07:58:53;;;;;;;32.90;19.10;;;;;;;9.30;86.26;93743.38;5069475;28;20233;-68
2022/10/21 08:01:19;;;;;;;32.77;19.87;;;;;;;9.83;84.02;93748.66;5070891;28;20181;-68
2022/10/21 08:03:45;;;;;;;20.40;17.70;;;;;;;9.85;83.53;93737.97;5070863;28;20225;-68
2022/10/21 08:06:13;;;;;;;26.63;18.83;;;;;;;10.09;81.95;93755.72;5071285;28;20196;-70
2022/10/21 08:08:39;;;;;;;21.60;17.37;;;;;;;10.28;81.15;93743.88;5069538;28;20253;-70
2022/10/21 08:11:06;;;;;;;29.53;20.00;;;;;;;10.30;80.28;93743.63;5069470;28;20225;-70
2022/10/21 08:13:32;;;;;;;20.53;18.17;;;;;;;10.19;80.95;93741.97;5070219;28;20257;-68
2022/10/21 08:15:58;;;;;;;22.00;16.33;;;;;;;10.16;81.26;93745.06;5070961;28;20277;-70
2022/10/21 08:18:25;;;;;;;19.47;17.37;;;;;;;10.06;82.22;93740.53;5070035;28;20236;-69
2022/10/21 08:20:50;;;;;;;33.93;17.63;;;;;;;10.17;81.57;93738.81;5070541;28;20209;-69
2022/10/21 08:23:18;;;;;;;24.17;18.97;;;;;;;10.30;80.57;93735.81;5069989;28;20781;-68
2022/10/21 08:25:47;;;;;;;27.43;19.03;;;;;;;10.42;80.12;93742.44;5070818;28;20193;-67
2022/10/21 08:28:13;;;;;;;22.50;17.40;;;;;;;10.13;81.92;93735.94;5069024;28;20289;-70
2022/10/21 08:30:38;;;;;;;23.60;16.67;;;;;;;10.22;81.12;93742.28;5070532;28;20177;-69
2022/10/21 08:33:04;;;;;;;24.50;17.80;;;;;;;10.35;80.08;93738.47;5070172;28;21132;-69
2022/10/21 08:35:29;;;;;;;25.90;17.10;;;;;;;10.64;79.53;93732.69;5069530;28;20209;-70
2022/10/21 08:37:55;;;;;;;19.97;16.20;;;;;;;10.66;79.22;93746.25;5069418;28;20283;-68
2022/10/21 08:40:21;;;;;;;19.80;17.73;;;;;;;10.84;79.06;93743.25;5069803;28;20197;-70
2022/10/21 08:42:47;;;;;;;19.93;17.20;;;;;;;11.06;77.55;93738.69;5069910;28;20189;-69
2022/10/21 08:45:48;;;;;;;20.50;17.37;;;;;;;11.11;77.48;93737.94;5070297;28;20198;-70
2022/10/21 08:48:19;;;;;;;18.93;16.90;;;;;;;11.03;77.07;93725.34;5069505;28;20261;-69
2022/10/21 08:50:48;;;;;;;19.20;16.60;;;;;;;10.77;78.17;93732.22;5069587;28;20198;-69
2022/10/21 08:53:22;;;;;;;17.97;16.13;;;;;;;10.93;76.75;93715.63;5068900;28;20228;-69
2022/10/21 08:55:48;;;;;;;18.90;16.87;;;;;;;10.96;76.96;93736.00;5070189;28;20233;-68
2022/10/21 08:58:22;;;;;;;23.03;16.13;;;;;;;11.07;77.09;93737.63;5069827;28;20263;-68
2022/10/21 09:01:26;;;;;;;19.10;17.30;;;;;;;11.13;76.63;93734.00;5069335;28;20260;-69
2022/10/21 09:04:03;;;;;;;21.17;16.57;;;;;;;10.99;77.14;93732.09;5068643;28;20246;-69
2022/10/21 09:06:38;;;;;;;19.53;17.53;;;;;;;11.10;76.43;93726.69;5069758;28;21007;-69
2022/10/21 09:09:19;;;;;;;22.67;18.07;;;;;;;11.02;77.21;93732.38;5068643;28;20274;-69
2022/10/21 09:12:03;;;;;;;26.30;16.33;;;;;;;11.02;77.43;93731.59;5069579;28;20197;-69
2022/10/21 09:14:35;;;;;;;28.73;17.80;;;;;;;11.13;76.96;93720.94;5068905;28;20244;-69
2022/10/21 09:17:20;;;;;;;20.90;16.87;;;;;;;11.21;77.10;93717.06;5069352;28;20267;-69
2022/10/21 09:19:54;;;;;;;26.67;18.47;;;;;;;11.48;75.34;93709.84;5068679;28;20252;-70
2022/10/21 09:22:47;;;;;;;22.00;17.53;;;;;;;11.12;78.06;93702.91;5068825;28;20215;-68
2022/10/21 09:25:31;;;;;;;17.93;16.13;;;;;;;11.45;76.01;93706.94;5066244;28;20209;-69
2022/10/21 09:27:58;;;;;;;20.73;17.40;;;;;;;11.40;77.03;93710.34;5065249;28;20201;-70
2022/10/21 09:30:24;;;;;;;21.83;17.60;;;;;;;11.51;76.46;93703.31;5068220;28;20201;-69
2022/10/21 09:32:55;;;;;;;22.93;17.23;;;;;;;11.57;76.57;93708.31;5068297;28;20307;-67
2022/10/21 09:35:33;;;;;;;21.53;17.33;;;;;;;11.54;75.24;93698.34;5069223;28;20223;-67
2022/10/21 09:38:20;;;;;;;20.07;17.03;;;;;;;11.79;74.33;93698.44;5066823;28;20259;-67
2022/10/21 09:40:48;;;;;;;23.23;17.60;;;;;;;11.72;73.54;93699.75;5066725;28;20864;-67
2022/10/21 09:43:24;;;;;;;22.37;16.90;;;;;;;11.64;73.82;93695.03;5066882;28;20629;-66
2022/10/21 09:45:50;;;;;;;24.47;16.37;;;;;;;11.25;75.44;93695.38;5068239;28;20220;-66
2022/10/21 09:48:24;;;;;;;19.40;16.90;;;;;;;11.54;74.78;93684.47;5067474;28;20213;-66
2022/10/21 09:50:52;;;;;;;20.43;17.03;;;;;;;11.75;74.57;93701.84;5067968;28;20236;-67
2022/10/21 09:53:22;;;;;;;19.17;17.23;;;;;;;12.09;72.02;93698.50;5067511;28;20285;-66
2022/10/21 09:56:00;;;;;;;17.57;15.70;;;;;;;12.07;72.62;93703.22;5067070;28;20220;-67
2022/10/21 09:58:28;;;;;;;19.23;17.30;;;;;;;12.00;72.58;93694.03;5067834;28;20222;-66
2022/10/21 10:00:55;;;;;;;19.70;16.73;;;;;;;11.67;73.73;93686.66;5068476;28;20201;-67
2022/10/21 10:03:42;;;;;;;21.67;16.03;;;;;;;11.36;74.52;93696.97;5068773;28;20232;-66
2022/10/21 10:06:08;;;;;;;19.57;16.90;;;;;;;11.55;75.25;93696.53;5068443;28;20206;-67
2022/10/21 10:08:41;;;;;;;17.83;15.87;;;;;;;11.59;74.14;93694.97;5068553;28;20229;-67
2022/10/21 10:11:09;;;;;;;18.10;15.90;;;;;;;11.84;73.97;93698.47;5067484;28;20230;-67
2022/10/21 10:13:36;;;;;;;19.60;16.03;;;;;;;12.20;73.12;93688.81;5067601;28;20248;-67
2022/10/21 10:16:12;;;;;;;17.77;15.67;;;;;;;12.57;70.64;93689.31;5068943;28;21469;-66
2022/10/21 10:18:37;;;;;;;21.87;15.90;;;;;;;12.12;73.61;93687.50;5066502;28;20239;-66
2022/10/21 10:21:05;;;;;;;16.77;14.93;;;;;;;12.36;71.02;93687.75;5068845;28;20207;-66
2022/10/21 10:23:42;;;;;;;17.53;15.73;;;;;;;12.01;71.79;93678.09;5067619;28;20233;-67
2022/10/21 10:26:07;;;;;;;18.60;14.93;;;;;;;12.08;71.71;93677.78;5068143;28;20271;-66
2022/10/21 10:28:33;;;;;;;17.10;15.40;;;;;;;12.26;71.77;93666.81;5067679;28;20225;-67
2022/10/21 10:30:58;;;;;;;18.07;15.93;;;;;;;12.60;70.38;93679.13;5068584;28;20192;-67
2022/10/21 10:33:28;;;;;;;18.90;16.90;;;;;;;12.61;71.17;93682.50;5061666;28;20225;-67
2022/10/21 10:35:58;;;;;;;18.43;16.23;;;;;;;12.57;70.27;93679.63;5047872;28;20230;-67
2022/10/21 10:38:34;;;;;;;21.03;16.93;;;;;;;12.80;69.78;93673.03;5047046;28;20272;-68
2022/10/21 10:41:09;;;;;;;19.73;17.23;;;;;;;12.76;68.87;93679.88;5049079;28;20204;-68
2022/10/21 10:43:48;;;;;;;40.53;18.03;;;;;;;12.66;70.05;93669.41;5048516;28;20233;-68
2022/10/21 10:46:33;;;;;;;22.37;15.93;;;;;;;12.77;69.59;93658.66;5049090;28;20194;-68
2022/10/21 10:49:18;;;;;;;18.67;14.97;;;;;;;12.38;70.23;93617.56;5048638;28;20245;-68
2022/10/21 10:52:02;;;;;;;23.23;15.70;;;;;;;12.61;70.48;93649.22;5047966;28;20188;-69
2022/10/21 10:54:27;;;;;;;18.90;16.87;;;;;;;12.88;69.28;93643.66;5043891;28;20217;-70
2022/10/21 10:57:19;;;;;;;21.03;16.37;;;;;;;12.93;69.21;93627.94;5037529;28;20221;-68
2022/10/21 10:59:55;;;;;;;18.20;16.40;;;;;;;13.18;68.87;93637.56;5047448;28;20224;-69
2022/10/21 11:02:24;;;;;;;17.70;15.90;;;;;;;13.07;67.97;93642.06;5049761;28;20270;-68
2022/10/21 11:05:15;;;;;;;19.80;16.10;;;;;;;13.05;68.51;93641.53;5042581;28;20234;-70
2022/10/21 11:07:48;;;;;;;18.00;15.37;;;;;;;13.05;69.08;93638.94;5045795;28;20258;-69
2022/10/21 11:10:31;;;;;;;17.60;15.80;;;;;;;13.05;68.41;93633.69;5073205;28;20228;-69
2022/10/21 11:13:01;;;;;;;18.00;16.07;;;;;;;13.11;68.42;93622.13;5071769;28;20239;-69
2022/10/21 11:15:42;;;;;;;17.90;15.80;;;;;;;13.01;69.28;93613.50;5072270;28;20276;-69
2022/10/21 11:18:20;;;;;;;18.47;15.90;;;;;;;13.14;68.69;93626.81;5070135;28;21042;-69
2022/10/21 11:21:00;;;;;;;18.93;15.50;;;;;;;13.49;66.91;93624.03;5071581;28;20187;-69
2022/10/21 11:23:49;;;;;;;18.43;16.53;;;;;;;13.52;67.01;93610.38;5064828;28;20225;-69
2022/10/21 11:26:25;;;;;;;18.47;16.57;;;;;;;13.37;67.46;93610.44;5051837;28;20190;-69
2022/10/21 11:29:02;;;;;;;18.83;16.63;;;;;;;13.41;68.51;93611.50;5062514;28;20225;-70
2022/10/21 11:31:47;;;;;;;17.43;15.63;;;;;;;13.50;66.66;93609.06;5072632;28;20185;-69
2022/10/21 11:34:39;;;;;;;17.43;15.50;;;;;;;13.81;66.05;93600.72;5072449;28;20739;-69